Agness, OR

6:45 AM PDT on September 01, 2014 (GMT -0700)
Weather Hawk | Change Station
CLOSE
Current Station
Personal Weather Station
Location: Gold Beach, OR
Elevation: 128 ft
Nearby Weather Stations

Elev 128 ft 42.53 °N, 124.39 °W | Updated 4 seconds ago

Clear
Clear
49.5 °F
Feels Like 50 °F
N
0.7
Wind Variable Wind from SE
Gusts 1.6 mph

Today
High -- | Low -- °F
--% Chance of Precip.
Yesterday
High -- | Low -- °F
Precip. -- in
6:41 AM 7:50 PM
Waxing Crescent, 41% visible
Pressure 29.97 in
Visibility 10.0 miles
Clouds Clear
Windchill 50 °F
Dew Point 49 °F
Humidity 98%
Rainfall 0.00 in
Snow Depth Not available.
UV 0 out of 12
Pollen 5.80 out of 12
Air Quality Not available.
Flu Activity Not available.
METAR KBOK 011256Z AUTO 03003KT 10SM CLR 14/11 A2997 RMK AO2 T01440111 SLP147

More Conditions Fewer Conditions

Pressure 29.97 in
Visibility 10.0 miles
Clouds Clear
Windchill 50 °F
Dew Point 49 °F
Humidity 98%
Rainfall 0.00 in
Snow Depth Not available.
UV 0 out of 12
Pollen 5.80 out of 12
Air Quality Not available.
Flu Activity Not available.
METAR KBOK 011256Z AUTO 03003KT 10SM CLR 14/11 A2997 RMK AO2 T01440111 SLP147

More Conditions Fewer Conditions

10-Day Weather Forecast

Almanac

Astronomy

Sep. 01, 2014 Rise Set
Actual Time 6:41 AM PDT 7:50 PM PDT
Civil Twilight 6:12 AM PDT 8:19 PM PDT
Nautical Twilight 5:37 AM PDT 8:53 PM PDT
Astronomical Twilight 5:00 AM PDT 9:30 PM PDT
Moon 1:41 PM PDT 11:47 PM PDT
Length of Visible Light 14h 07m
Length of Day
13h 09m
Tomorrow will be 2m 46s shorter.
Waxing Crescent, 41% of the Moon is Illuminated
Today
Waxing Crescent
Sep 2
First Quarter
Sep 8
Full
Sep 15
Last Quarter
Sep 24
New

Today's Extremes

State Highs State Lows

Community

WunderPhotos

Upload Photos

1,749,222 photos uploaded!

Nearby

Snow Depth

Station Depth Elevation
Bigelow Camp 1 in 5120 ft
Big Red Mountain 0 in 6250 ft
Fish Lake 0 in 4665 ft
Billie Creek Divide 0 in 5300 ft
Fourmile Lake 2 in 6000 ft

Earthquake Activity

City Distance Mag. Time & Date
No recent earthquake activity has been reported nearby.
Minimum magnitude displayed is 2.5.

Coastal Water Temperatures

Place Temperature
Port Orford, OR 52.0 °F
Crescent City, CA 55.9 °F
Charleston, OR 55.0 °F

Nearby Weather Stations